sensor_id;sensor_type;location;lat;lon;timestamp;temperature;humidity
67799;SHT30;54596;43.216;27.904;2024-01-16T00:01:57;6.60;83.43
67799;SHT30;54596;43.216;27.904;2024-01-16T00:04:23;6.58;83.44
67799;SHT30;54596;43.216;27.904;2024-01-16T00:06:49;6.61;83.37
67799;SHT30;54596;43.216;27.904;2024-01-16T00:09:15;6.63;83.35
67799;SHT30;54596;43.216;27.904;2024-01-16T00:11:44;6.64;83.33
67799;SHT30;54596;43.216;27.904;2024-01-16T00:14:10;6.64;83.37
67799;SHT30;54596;43.216;27.904;2024-01-16T00:16:42;6.64;83.46
67799;SHT30;54596;43.216;27.904;2024-01-16T00:19:10;6.64;83.51
67799;SHT30;54596;43.216;27.904;2024-01-16T00:21:43;6.64;83.64
67799;SHT30;54596;43.216;27.904;2024-01-16T00:24:11;6.64;83.75
67799;SHT30;54596;43.216;27.904;2024-01-16T00:26:36;6.67;84.04
67799;SHT30;54596;43.216;27.904;2024-01-16T00:29:02;6.67;83.99
67799;SHT30;54596;43.216;27.904;2024-01-16T00:31:28;6.67;83.92
67799;SHT30;54596;43.216;27.904;2024-01-16T00:33:53;6.68;84.03
67799;SHT30;54596;43.216;27.904;2024-01-16T00:36:19;6.69;84.36
67799;SHT30;54596;43.216;27.904;2024-01-16T00:38:45;6.67;84.37
67799;SHT30;54596;43.216;27.904;2024-01-16T00:41:12;6.72;84.37
67799;SHT30;54596;43.216;27.904;2024-01-16T00:43:40;6.74;84.44
67799;SHT30;54596;43.216;27.904;2024-01-16T00:46:06;6.75;84.32
67799;SHT30;54596;43.216;27.904;2024-01-16T00:48:32;6.74;84.32
67799;SHT30;54596;43.216;27.904;2024-01-16T00:50:58;6.75;84.52
67799;SHT30;54596;43.216;27.904;2024-01-16T00:53:23;6.78;84.58
67799;SHT30;54596;43.216;27.904;2024-01-16T00:55:49;6.78;84.62
67799;SHT30;54596;43.216;27.904;2024-01-16T00:58:15;6.81;84.80
67799;SHT30;54596;43.216;27.904;2024-01-16T01:00:41;6.81;84.81
67799;SHT30;54596;43.216;27.904;2024-01-16T01:03:06;6.82;84.88
67799;SHT30;54596;43.216;27.904;2024-01-16T01:05:32;6.84;85.24
67799;SHT30;54596;43.216;27.904;2024-01-16T01:07:57;6.91;85.51
67799;SHT30;54596;43.216;27.904;2024-01-16T01:10:23;6.89;85.48
67799;SHT30;54596;43.216;27.904;2024-01-16T01:12:49;6.88;85.38
67799;SHT30;54596;43.216;27.904;2024-01-16T01:15:16;6.89;85.35
67799;SHT30;54596;43.216;27.904;2024-01-16T01:17:41;6.91;85.36
67799;SHT30;54596;43.216;27.904;2024-01-16T01:20:10;6.86;85.49
67799;SHT30;54596;43.216;27.904;2024-01-16T01:22:38;6.89;85.32
67799;SHT30;54596;43.216;27.904;2024-01-16T01:25:04;6.88;85.31
67799;SHT30;54596;43.216;27.904;2024-01-16T01:27:30;6.85;85.20
67799;SHT30;54596;43.216;27.904;2024-01-16T01:29:55;6.84;85.10
67799;SHT30;54596;43.216;27.904;2024-01-16T01:32:21;6.81;85.20
67799;SHT30;54596;43.216;27.904;2024-01-16T01:34:47;6.79;85.24
67799;SHT30;54596;43.216;27.904;2024-01-16T01:37:12;6.78;85.39
67799;SHT30;54596;43.216;27.904;2024-01-16T01:39:39;6.72;85.62
67799;SHT30;54596;43.216;27.904;2024-01-16T01:42:05;6.72;85.71
67799;SHT30;54596;43.216;27.904;2024-01-16T01:44:31;6.71;85.73
67799;SHT30;54596;43.216;27.904;2024-01-16T01:46:57;6.67;85.86
67799;SHT30;54596;43.216;27.904;2024-01-16T01:49:23;6.67;86.01
67799;SHT30;54596;43.216;27.904;2024-01-16T01:51:49;6.68;85.97
67799;SHT30;54596;43.216;27.904;2024-01-16T01:54:16;6.67;85.94
67799;SHT30;54596;43.216;27.904;2024-01-16T01:56:44;6.68;85.90
67799;SHT30;54596;43.216;27.904;2024-01-16T01:59:11;6.65;86.04
67799;SHT30;54596;43.216;27.904;2024-01-16T02:01:36;6.65;86.18
67799;SHT30;54596;43.216;27.904;2024-01-16T02:04:04;6.64;86.36
67799;SHT30;54596;43.216;27.904;2024-01-16T02:06:30;6.63;86.25
67799;SHT30;54596;43.216;27.904;2024-01-16T02:08:56;6.64;86.16
67799;SHT30;54596;43.216;27.904;2024-01-16T02:11:22;6.58;86.27
67799;SHT30;54596;43.216;27.904;2024-01-16T02:13:48;6.57;86.42
67799;SHT30;54596;43.216;27.904;2024-01-16T02:16:23;6.54;86.35
67799;SHT30;54596;43.216;27.904;2024-01-16T02:18:50;6.51;86.38
67799;SHT30;54596;43.216;27.904;2024-01-16T02:21:25;6.50;86.48
67799;SHT30;54596;43.216;27.904;2024-01-16T02:23:53;6.50;86.56
67799;SHT30;54596;43.216;27.904;2024-01-16T02:26:19;6.48;86.61
67799;SHT30;54596;43.216;27.904;2024-01-16T02:28:45;6.47;86.72
67799;SHT30;54596;43.216;27.904;2024-01-16T02:31:10;6.44;86.69
67799;SHT30;54596;43.216;27.904;2024-01-16T02:33:36;6.45;86.70
67799;SHT30;54596;43.216;27.904;2024-01-16T02:36:02;6.44;86.68
67799;SHT30;54596;43.216;27.904;2024-01-16T02:38:27;6.45;86.71
67799;SHT30;54596;43.216;27.904;2024-01-16T02:40:53;6.45;86.73
67799;SHT30;54596;43.216;27.904;2024-01-16T02:43:18;6.44;86.86
67799;SHT30;54596;43.216;27.904;2024-01-16T02:45:44;6.47;86.92
67799;SHT30;54596;43.216;27.904;2024-01-16T02:48:10;6.47;86.93
67799;SHT30;54596;43.216;27.904;2024-01-16T02:50:35;6.48;86.92
67799;SHT30;54596;43.216;27.904;2024-01-16T02:53:01;6.48;86.84
67799;SHT30;54596;43.216;27.904;2024-01-16T02:55:26;6.51;86.86
67799;SHT30;54596;43.216;27.904;2024-01-16T02:57:52;6.54;86.72
67799;SHT30;54596;43.216;27.904;2024-01-16T03:00:18;6.52;86.56
67799;SHT30;54596;43.216;27.904;2024-01-16T03:02:44;6.52;86.56
67799;SHT30;54596;43.216;27.904;2024-01-16T03:05:10;6.52;86.41
67799;SHT30;54596;43.216;27.904;2024-01-16T03:07:36;6.50;86.36
67799;SHT30;54596;43.216;27.904;2024-01-16T03:10:02;6.51;86.48
67799;SHT30;54596;43.216;27.904;2024-01-16T03:12:28;6.51;86.69
67799;SHT30;54596;43.216;27.904;2024-01-16T03:14:54;6.54;86.57
67799;SHT30;54596;43.216;27.904;2024-01-16T03:17:20;6.52;86.41
67799;SHT30;54596;43.216;27.904;2024-01-16T03:19:46;6.52;86.43
67799;SHT30;54596;43.216;27.904;2024-01-16T03:22:11;6.54;86.38
67799;SHT30;54596;43.216;27.904;2024-01-16T03:24:38;6.50;86.39
67799;SHT30;54596;43.216;27.904;2024-01-16T03:27:04;6.50;86.51
67799;SHT30;54596;43.216;27.904;2024-01-16T03:29:29;6.47;86.59
67799;SHT30;54596;43.216;27.904;2024-01-16T03:31:55;6.48;86.61
67799;SHT30;54596;43.216;27.904;2024-01-16T03:34:21;6.47;86.54
67799;SHT30;54596;43.216;27.904;2024-01-16T03:36:46;6.50;86.55
67799;SHT30;54596;43.216;27.904;2024-01-16T03:39:12;6.44;86.72
67799;SHT30;54596;43.216;27.904;2024-01-16T03:41:38;6.45;86.79
67799;SHT30;54596;43.216;27.904;2024-01-16T03:44:03;6.43;86.88
67799;SHT30;54596;43.216;27.904;2024-01-16T03:46:29;6.48;86.76
67799;SHT30;54596;43.216;27.904;2024-01-16T03:48:55;6.47;86.78
67799;SHT30;54596;43.216;27.904;2024-01-16T03:51:20;6.47;86.77
67799;SHT30;54596;43.216;27.904;2024-01-16T03:53:46;6.44;86.58
67799;SHT30;54596;43.216;27.904;2024-01-16T03:56:11;6.41;86.59
67799;SHT30;54596;43.216;27.904;2024-01-16T03:58:39;6.40;86.62
67799;SHT30;54596;43.216;27.904;2024-01-16T04:01:05;6.37;86.53
67799;SHT30;54596;43.216;27.904;2024-01-16T04:03:30;6.34;86.51
67799;SHT30;54596;43.216;27.904;2024-01-16T04:05:56;6.30;86.65
67799;SHT30;54596;43.216;27.904;2024-01-16T04:08:21;6.29;86.91
67799;SHT30;54596;43.216;27.904;2024-01-16T04:10:47;6.27;86.93
67799;SHT30;54596;43.216;27.904;2024-01-16T04:13:12;6.27;87.15
67799;SHT30;54596;43.216;27.904;2024-01-16T04:15:38;6.25;87.03
67799;SHT30;54596;43.216;27.904;2024-01-16T04:18:04;6.26;86.91
67799;SHT30;54596;43.216;27.904;2024-01-16T04:20:30;6.30;86.84
67799;SHT30;54596;43.216;27.904;2024-01-16T04:22:56;6.32;86.87
67799;SHT30;54596;43.216;27.904;2024-01-16T04:25:23;6.33;86.88
67799;SHT30;54596;43.216;27.904;2024-01-16T04:27:48;6.33;86.78
67799;SHT30;54596;43.216;27.904;2024-01-16T04:30:14;6.33;86.77
67799;SHT30;54596;43.216;27.904;2024-01-16T04:32:40;6.34;86.77
67799;SHT30;54596;43.216;27.904;2024-01-16T04:35:06;6.34;86.79
67799;SHT30;54596;43.216;27.904;2024-01-16T04:37:31;6.33;86.84
67799;SHT30;54596;43.216;27.904;2024-01-16T04:39:57;6.34;86.76
67799;SHT30;54596;43.216;27.904;2024-01-16T04:42:24;6.36;86.71
67799;SHT30;54596;43.216;27.904;2024-01-16T04:44:49;6.37;86.63
67799;SHT30;54596;43.216;27.904;2024-01-16T04:47:15;6.37;86.65
67799;SHT30;54596;43.216;27.904;2024-01-16T04:49:44;6.37;86.68
67799;SHT30;54596;43.216;27.904;2024-01-16T04:52:09;6.36;86.75
67799;SHT30;54596;43.216;27.904;2024-01-16T04:54:35;6.34;86.74
67799;SHT30;54596;43.216;27.904;2024-01-16T04:57:00;6.30;86.66
67799;SHT30;54596;43.216;27.904;2024-01-16T04:59:26;6.33;86.89
67799;SHT30;54596;43.216;27.904;2024-01-16T05:01:52;6.34;87.14
67799;SHT30;54596;43.216;27.904;2024-01-16T05:04:18;6.29;87.37
67799;SHT30;54596;43.216;27.904;2024-01-16T05:06:43;6.29;87.50
67799;SHT30;54596;43.216;27.904;2024-01-16T05:09:09;6.27;87.53
67799;SHT30;54596;43.216;27.904;2024-01-16T05:11:35;6.26;87.59
67799;SHT30;54596;43.216;27.904;2024-01-16T05:14:00;6.20;87.59
67799;SHT30;54596;43.216;27.904;2024-01-16T05:16:27;6.22;87.94
67799;SHT30;54596;43.216;27.904;2024-01-16T05:18:53;6.17;87.95
67799;SHT30;54596;43.216;27.904;2024-01-16T05:21:19;6.17;87.93
67799;SHT30;54596;43.216;27.904;2024-01-16T05:23:45;6.15;87.98
67799;SHT30;54596;43.216;27.904;2024-01-16T05:26:11;6.12;88.22
67799;SHT30;54596;43.216;27.904;2024-01-16T05:28:36;6.12;88.36
67799;SHT30;54596;43.216;27.904;2024-01-16T05:31:02;6.09;88.31
67799;SHT30;54596;43.216;27.904;2024-01-16T05:33:27;6.08;88.40
67799;SHT30;54596;43.216;27.904;2024-01-16T05:35:53;6.10;88.48
67799;SHT30;54596;43.216;27.904;2024-01-16T05:38:19;6.17;88.43
67799;SHT30;54596;43.216;27.904;2024-01-16T05:40:44;6.22;88.34
67799;SHT30;54596;43.216;27.904;2024-01-16T05:43:10;6.27;87.98
67799;SHT30;54596;43.216;27.904;2024-01-16T05:45:35;6.40;87.63
67799;SHT30;54596;43.216;27.904;2024-01-16T05:48:01;6.47;87.21
67799;SHT30;54596;43.216;27.904;2024-01-16T05:50:27;6.61;86.81
67799;SHT30;54596;43.216;27.904;2024-01-16T05:52:52;6.75;85.67
67799;SHT30;54596;43.216;27.904;2024-01-16T05:55:18;6.85;85.73
67799;SHT30;54596;43.216;27.904;2024-01-16T05:57:46;7.12;84.66
67799;SHT30;54596;43.216;27.904;2024-01-16T06:00:12;7.26;84.01
67799;SHT30;54596;43.216;27.904;2024-01-16T06:02:38;7.35;83.91
67799;SHT30;54596;43.216;27.904;2024-01-16T06:05:04;7.43;83.49
67799;SHT30;54596;43.216;27.904;2024-01-16T06:07:29;7.52;82.88
67799;SHT30;54596;43.216;27.904;2024-01-16T06:09:55;7.64;82.22
67799;SHT30;54596;43.216;27.904;2024-01-16T06:12:20;7.74;81.81
67799;SHT30;54596;43.216;27.904;2024-01-16T06:14:46;7.82;81.61
67799;SHT30;54596;43.216;27.904;2024-01-16T06:17:12;7.82;81.53
67799;SHT30;54596;43.216;27.904;2024-01-16T06:19:37;7.85;81.36
67799;SHT30;54596;43.216;27.904;2024-01-16T06:22:03;7.89;81.18
67799;SHT30;54596;43.216;27.904;2024-01-16T06:24:29;7.94;81.09
67799;SHT30;54596;43.216;27.904;2024-01-16T06:27:02;8.02;80.90
67799;SHT30;54596;43.216;27.904;2024-01-16T06:29:29;8.02;80.74
67799;SHT30;54596;43.216;27.904;2024-01-16T06:31:54;8.02;80.72
67799;SHT30;54596;43.216;27.904;2024-01-16T06:34:20;8.04;80.74
67799;SHT30;54596;43.216;27.904;2024-01-16T06:36:45;8.06;80.51
67799;SHT30;54596;43.216;27.904;2024-01-16T06:39:11;8.07;80.68
67799;SHT30;54596;43.216;27.904;2024-01-16T06:41:40;8.10;80.65
67799;SHT30;54596;43.216;27.904;2024-01-16T06:44:06;8.11;80.52
67799;SHT30;54596;43.216;27.904;2024-01-16T06:46:32;8.16;80.25
67799;SHT30;54596;43.216;27.904;2024-01-16T06:48:57;8.17;80.07
67799;SHT30;54596;43.216;27.904;2024-01-16T06:51:23;8.19;80.08
67799;SHT30;54596;43.216;27.904;2024-01-16T06:53:49;8.21;80.00
67799;SHT30;54596;43.216;27.904;2024-01-16T06:56:14;8.24;79.65
67799;SHT30;54596;43.216;27.904;2024-01-16T06:58:40;8.33;79.89
67799;SHT30;54596;43.216;27.904;2024-01-16T07:01:05;8.33;79.38
67799;SHT30;54596;43.216;27.904;2024-01-16T07:03:31;8.40;79.19
67799;SHT30;54596;43.216;27.904;2024-01-16T07:05:56;8.38;79.04
67799;SHT30;54596;43.216;27.904;2024-01-16T07:08:22;8.37;79.03
67799;SHT30;54596;43.216;27.904;2024-01-16T07:10:48;8.34;78.96
67799;SHT30;54596;43.216;27.904;2024-01-16T07:13:13;8.33;79.07
67799;SHT30;54596;43.216;27.904;2024-01-16T07:15:39;8.31;78.93
67799;SHT30;54596;43.216;27.904;2024-01-16T07:18:05;8.33;79.08
67799;SHT30;54596;43.216;27.904;2024-01-16T07:20:30;8.34;79.08
67799;SHT30;54596;43.216;27.904;2024-01-16T07:22:56;8.37;79.09
67799;SHT30;54596;43.216;27.904;2024-01-16T07:25:22;8.31;79.03
67799;SHT30;54596;43.216;27.904;2024-01-16T07:27:47;8.34;79.20
67799;SHT30;54596;43.216;27.904;2024-01-16T07:30:15;8.33;79.13
67799;SHT30;54596;43.216;27.904;2024-01-16T07:32:41;8.27;79.09
67799;SHT30;54596;43.216;27.904;2024-01-16T07:35:07;8.23;79.18
67799;SHT30;54596;43.216;27.904;2024-01-16T07:37:32;8.21;79.35
67799;SHT30;54596;43.216;27.904;2024-01-16T07:39:58;8.21;79.33
67799;SHT30;54596;43.216;27.904;2024-01-16T07:42:23;8.24;78.96
67799;SHT30;54596;43.216;27.904;2024-01-16T07:44:49;8.10;78.29
67799;SHT30;54596;43.216;27.904;2024-01-16T07:47:15;8.02;78.16
67799;SHT30;54596;43.216;27.904;2024-01-16T07:49:40;7.85;78.22
67799;SHT30;54596;43.216;27.904;2024-01-16T07:52:07;7.79;78.45
67799;SHT30;54596;43.216;27.904;2024-01-16T07:54:32;7.72;78.46
67799;SHT30;54596;43.216;27.904;2024-01-16T07:56:58;7.58;78.77
67799;SHT30;54596;43.216;27.904;2024-01-16T07:59:24;7.54;79.14
67799;SHT30;54596;43.216;27.904;2024-01-16T08:01:51;7.52;79.19
67799;SHT30;54596;43.216;27.904;2024-01-16T08:04:17;7.44;79.46
67799;SHT30;54596;43.216;27.904;2024-01-16T08:06:43;7.33;79.87
67799;SHT30;54596;43.216;27.904;2024-01-16T08:09:08;7.24;79.91
67799;SHT30;54596;43.216;27.904;2024-01-16T08:11:36;7.19;80.17
67799;SHT30;54596;43.216;27.904;2024-01-16T08:14:02;7.23;79.84
67799;SHT30;54596;43.216;27.904;2024-01-16T08:16:28;7.07;80.19
67799;SHT30;54596;43.216;27.904;2024-01-16T08:18:54;7.02;80.40
67799;SHT30;54596;43.216;27.904;2024-01-16T08:21:19;7.03;80.44
67799;SHT30;54596;43.216;27.904;2024-01-16T08:23:45;6.96;80.34
67799;SHT30;54596;43.216;27.904;2024-01-16T08:26:10;6.91;80.21
67799;SHT30;54596;43.216;27.904;2024-01-16T08:28:36;6.84;80.36
67799;SHT30;54596;43.216;27.904;2024-01-16T08:31:01;6.79;80.39
67799;SHT30;54596;43.216;27.904;2024-01-16T08:33:27;6.86;80.21
67799;SHT30;54596;43.216;27.904;2024-01-16T08:35:53;6.89;79.81
67799;SHT30;54596;43.216;27.904;2024-01-16T08:38:18;6.86;79.70
67799;SHT30;54596;43.216;27.904;2024-01-16T08:40:44;6.82;79.40
67799;SHT30;54596;43.216;27.904;2024-01-16T08:43:09;6.86;79.26
67799;SHT30;54596;43.216;27.904;2024-01-16T08:45:35;6.84;79.32
67799;SHT30;54596;43.216;27.904;2024-01-16T08:48:00;6.84;79.25
67799;SHT30;54596;43.216;27.904;2024-01-16T08:50:26;6.85;79.39
67799;SHT30;54596;43.216;27.904;2024-01-16T08:52:51;6.82;79.42
67799;SHT30;54596;43.216;27.904;2024-01-16T08:55:17;6.78;79.30
67799;SHT30;54596;43.216;27.904;2024-01-16T08:57:43;6.78;79.34
67799;SHT30;54596;43.216;27.904;2024-01-16T09:00:09;6.72;79.23
67799;SHT30;54596;43.216;27.904;2024-01-16T09:02:35;6.85;79.13
67799;SHT30;54596;43.216;27.904;2024-01-16T09:05:01;6.78;79.10
67799;SHT30;54596;43.216;27.904;2024-01-16T09:07:27;6.82;79.00
67799;SHT30;54596;43.216;27.904;2024-01-16T09:09:52;6.78;78.91
67799;SHT30;54596;43.216;27.904;2024-01-16T09:12:18;6.78;78.88
67799;SHT30;54596;43.216;27.904;2024-01-16T09:14:44;6.75;78.61
67799;SHT30;54596;43.216;27.904;2024-01-16T09:17:10;6.75;78.62
67799;SHT30;54596;43.216;27.904;2024-01-16T09:19:36;6.79;78.32
67799;SHT30;54596;43.216;27.904;2024-01-16T09:22:01;6.85;78.02
67799;SHT30;54596;43.216;27.904;2024-01-16T09:24:28;6.79;77.87
67799;SHT30;54596;43.216;27.904;2024-01-16T09:26:54;6.88;78.05
67799;SHT30;54596;43.216;27.904;2024-01-16T09:29:19;7.17;77.13
67799;SHT30;54596;43.216;27.904;2024-01-16T09:31:47;7.24;76.59
67799;SHT30;54596;43.216;27.904;2024-01-16T09:34:13;7.35;75.67
67799;SHT30;54596;43.216;27.904;2024-01-16T09:36:39;7.52;75.25
67799;SHT30;54596;43.216;27.904;2024-01-16T09:39:06;7.64;74.97
67799;SHT30;54596;43.216;27.904;2024-01-16T09:41:37;7.65;74.59
67799;SHT30;54596;43.216;27.904;2024-01-16T09:44:21;7.72;74.35
67799;SHT30;54596;43.216;27.904;2024-01-16T09:46:47;7.72;73.69
67799;SHT30;54596;43.216;27.904;2024-01-16T09:49:15;7.76;73.63
67799;SHT30;54596;43.216;27.904;2024-01-16T09:51:43;7.78;73.39
67799;SHT30;54596;43.216;27.904;2024-01-16T09:54:09;7.81;73.00
67799;SHT30;54596;43.216;27.904;2024-01-16T09:56:39;7.82;72.59
67799;SHT30;54596;43.216;27.904;2024-01-16T09:59:09;7.86;72.35
67799;SHT30;54596;43.216;27.904;2024-01-16T10:01:35;7.85;72.19
67799;SHT30;54596;43.216;27.904;2024-01-16T10:04:02;7.79;72.23
67799;SHT30;54596;43.216;27.904;2024-01-16T10:06:28;7.90;71.88
67799;SHT30;54596;43.216;27.904;2024-01-16T10:08:55;8.00;71.50
67799;SHT30;54596;43.216;27.904;2024-01-16T10:11:20;8.11;71.14
67799;SHT30;54596;43.216;27.904;2024-01-16T10:13:46;8.24;70.21
67799;SHT30;54596;43.216;27.904;2024-01-16T10:16:12;8.38;69.96
67799;SHT30;54596;43.216;27.904;2024-01-16T10:18:38;8.44;69.69
67799;SHT30;54596;43.216;27.904;2024-01-16T10:21:04;8.48;69.53
67799;SHT30;54596;43.216;27.904;2024-01-16T10:23:31;8.54;69.40
67799;SHT30;54596;43.216;27.904;2024-01-16T10:26:09;8.65;68.94
67799;SHT30;54596;43.216;27.904;2024-01-16T10:28:39;8.69;68.40
67799;SHT30;54596;43.216;27.904;2024-01-16T10:31:12;8.76;68.66
67799;SHT30;54596;43.216;27.904;2024-01-16T10:33:39;8.80;67.91
67799;SHT30;54596;43.216;27.904;2024-01-16T10:36:17;8.86;68.01
67799;SHT30;54596;43.216;27.904;2024-01-16T10:38:45;8.92;68.66
67799;SHT30;54596;43.216;27.904;2024-01-16T10:41:17;8.92;67.52
67799;SHT30;54596;43.216;27.904;2024-01-16T10:43:43;8.94;66.99
67799;SHT30;54596;43.216;27.904;2024-01-16T10:46:13;9.08;67.75
67799;SHT30;54596;43.216;27.904;2024-01-16T10:48:59;9.14;65.72
67799;SHT30;54596;43.216;27.904;2024-01-16T10:51:27;9.28;65.38
67799;SHT30;54596;43.216;27.904;2024-01-16T10:54:00;9.36;64.39
67799;SHT30;54596;43.216;27.904;2024-01-16T10:56:28;9.39;64.02
67799;SHT30;54596;43.216;27.904;2024-01-16T10:59:18;9.44;64.16
67799;SHT30;54596;43.216;27.904;2024-01-16T11:01:48;9.96;66.27
67799;SHT30;54596;43.216;27.904;2024-01-16T11:04:15;9.85;63.59
67799;SHT30;54596;43.216;27.904;2024-01-16T11:06:41;9.76;62.13
67799;SHT30;54596;43.216;27.904;2024-01-16T11:09:08;9.73;63.40
67799;SHT30;54596;43.216;27.904;2024-01-16T11:11:34;9.72;63.97
67799;SHT30;54596;43.216;27.904;2024-01-16T11:14:03;9.72;62.39
67799;SHT30;54596;43.216;27.904;2024-01-16T11:16:30;9.68;59.95
67799;SHT30;54596;43.216;27.904;2024-01-16T11:18:57;9.69;59.98
67799;SHT30;54596;43.216;27.904;2024-01-16T11:21:23;9.72;61.70
67799;SHT30;54596;43.216;27.904;2024-01-16T11:23:49;9.73;62.64
67799;SHT30;54596;43.216;27.904;2024-01-16T11:26:27;9.73;62.64
67799;SHT30;54596;43.216;27.904;2024-01-16T11:28:55;9.75;62.28
67799;SHT30;54596;43.216;27.904;2024-01-16T11:31:31;9.72;61.84
67799;SHT30;54596;43.216;27.904;2024-01-16T11:33:58;9.73;62.10
67799;SHT30;54596;43.216;27.904;2024-01-16T11:36:45;9.76;60.76
67799;SHT30;54596;43.216;27.904;2024-01-16T11:39:20;9.70;59.14
67799;SHT30;54596;43.216;27.904;2024-01-16T11:41:56;9.58;57.81
67799;SHT30;54596;43.216;27.904;2024-01-16T11:47:10;9.45;57.91
67799;SHT30;54596;43.216;27.904;2024-01-16T11:49:40;9.42;58.11
67799;SHT30;54596;43.216;27.904;2024-01-16T11:52:06;9.38;58.66
67799;SHT30;54596;43.216;27.904;2024-01-16T11:54:33;9.32;60.62
67799;SHT30;54596;43.216;27.904;2024-01-16T11:57:36;9.24;61.16
67799;SHT30;54596;43.216;27.904;2024-01-16T12:00:18;9.10;61.46
67799;SHT30;54596;43.216;27.904;2024-01-16T12:02:51;9.08;62.04
67799;SHT30;54596;43.216;27.904;2024-01-16T12:05:18;9.04;63.62
67799;SHT30;54596;43.216;27.904;2024-01-16T12:10:20;8.96;65.01
67799;SHT30;54596;43.216;27.904;2024-01-16T12:12:46;8.83;65.75
67799;SHT30;54596;43.216;27.904;2024-01-16T12:15:17;8.65;66.35
67799;SHT30;54596;43.216;27.904;2024-01-16T12:20:22;8.54;66.82
67799;SHT30;54596;43.216;27.904;2024-01-16T12:25:20;8.51;67.23
67799;SHT30;54596;43.216;27.904;2024-01-16T12:30:32;8.59;65.86
67799;SHT30;54596;43.216;27.904;2024-01-16T12:33:05;8.61;65.70
67799;SHT30;54596;43.216;27.904;2024-01-16T12:35:42;8.64;65.73
67799;SHT30;54596;43.216;27.904;2024-01-16T12:38:09;8.69;65.65
67799;SHT30;54596;43.216;27.904;2024-01-16T12:40:36;8.65;65.71
67799;SHT30;54596;43.216;27.904;2024-01-16T12:43:08;8.58;65.80
67799;SHT30;54596;43.216;27.904;2024-01-16T12:45:37;8.52;66.03
67799;SHT30;54596;43.216;27.904;2024-01-16T12:48:03;8.51;66.32
67799;SHT30;54596;43.216;27.904;2024-01-16T12:50:30;8.54;66.50
67799;SHT30;54596;43.216;27.904;2024-01-16T12:53:10;8.51;66.45
67799;SHT30;54596;43.216;27.904;2024-01-16T12:55:37;8.47;66.38
67799;SHT30;54596;43.216;27.904;2024-01-16T12:58:17;8.47;66.01
67799;SHT30;54596;43.216;27.904;2024-01-16T13:00:44;8.38;66.18
67799;SHT30;54596;43.216;27.904;2024-01-16T13:03:21;8.38;66.53
67799;SHT30;54596;43.216;27.904;2024-01-16T13:05:59;8.42;66.43
67799;SHT30;54596;43.216;27.904;2024-01-16T13:08:25;8.37;66.01
67799;SHT30;54596;43.216;27.904;2024-01-16T13:11:07;8.36;66.28
67799;SHT30;54596;43.216;27.904;2024-01-16T13:13:34;8.41;66.31
67799;SHT30;54596;43.216;27.904;2024-01-16T13:16:01;8.42;65.91
67799;SHT30;54596;43.216;27.904;2024-01-16T13:18:28;8.44;65.08
67799;SHT30;54596;43.216;27.904;2024-01-16T13:20:57;8.44;63.30
67799;SHT30;54596;43.216;27.904;2024-01-16T13:23:24;8.40;62.69
67799;SHT30;54596;43.216;27.904;2024-01-16T13:25:53;8.37;62.11
67799;SHT30;54596;43.216;27.904;2024-01-16T13:28:24;8.37;61.83
67799;SHT30;54596;43.216;27.904;2024-01-16T13:30:50;8.34;62.17
67799;SHT30;54596;43.216;27.904;2024-01-16T13:33:15;8.27;62.85
67799;SHT30;54596;43.216;27.904;2024-01-16T13:35:43;8.26;62.86
67799;SHT30;54596;43.216;27.904;2024-01-16T13:38:10;8.20;63.22
67799;SHT30;54596;43.216;27.904;2024-01-16T13:40:36;8.16;63.67
67799;SHT30;54596;43.216;27.904;2024-01-16T13:43:05;8.07;63.82
67799;SHT30;54596;43.216;27.904;2024-01-16T13:45:34;8.03;64.24
67799;SHT30;54596;43.216;27.904;2024-01-16T13:48:04;7.94;64.29
67799;SHT30;54596;43.216;27.904;2024-01-16T13:50:31;7.89;64.26
67799;SHT30;54596;43.216;27.904;2024-01-16T13:52:57;7.87;64.58
67799;SHT30;54596;43.216;27.904;2024-01-16T13:55:23;7.78;64.90
67799;SHT30;54596;43.216;27.904;2024-01-16T13:57:48;7.72;65.19
67799;SHT30;54596;43.216;27.904;2024-01-16T14:00:15;7.62;65.54
67799;SHT30;54596;43.216;27.904;2024-01-16T14:02:42;7.52;65.79
67799;SHT30;54596;43.216;27.904;2024-01-16T14:05:08;7.47;66.14
67799;SHT30;54596;43.216;27.904;2024-01-16T14:07:37;7.46;66.32
67799;SHT30;54596;43.216;27.904;2024-01-16T14:10:14;7.38;66.06
67799;SHT30;54596;43.216;27.904;2024-01-16T14:12:43;7.35;65.45
67799;SHT30;54596;43.216;27.904;2024-01-16T14:15:10;7.30;65.48
67799;SHT30;54596;43.216;27.904;2024-01-16T14:17:47;7.28;66.59
67799;SHT30;54596;43.216;27.904;2024-01-16T14:20:14;7.26;67.18
67799;SHT30;54596;43.216;27.904;2024-01-16T14:22:41;7.20;67.36
67799;SHT30;54596;43.216;27.904;2024-01-16T14:25:15;7.17;67.12
67799;SHT30;54596;43.216;27.904;2024-01-16T14:27:48;7.14;67.00
67799;SHT30;54596;43.216;27.904;2024-01-16T14:30:15;7.10;66.34
67799;SHT30;54596;43.216;27.904;2024-01-16T14:32:44;7.06;66.21
67799;SHT30;54596;43.216;27.904;2024-01-16T14:35:12;6.97;66.00
67799;SHT30;54596;43.216;27.904;2024-01-16T14:37:41;6.93;65.94
67799;SHT30;54596;43.216;27.904;2024-01-16T14:40:07;6.89;65.63
67799;SHT30;54596;43.216;27.904;2024-01-16T14:42:45;6.82;65.46
67799;SHT30;54596;43.216;27.904;2024-01-16T14:45:13;6.75;65.72
67799;SHT30;54596;43.216;27.904;2024-01-16T14:47:40;6.74;66.09
67799;SHT30;54596;43.216;27.904;2024-01-16T14:50:07;6.67;66.42
67799;SHT30;54596;43.216;27.904;2024-01-16T14:52:33;6.63;66.60
67799;SHT30;54596;43.216;27.904;2024-01-16T14:55:00;6.52;66.57
67799;SHT30;54596;43.216;27.904;2024-01-16T14:57:26;6.50;66.70
67799;SHT30;54596;43.216;27.904;2024-01-16T14:59:53;6.45;66.76
67799;SHT30;54596;43.216;27.904;2024-01-16T15:02:18;6.38;67.14
67799;SHT30;54596;43.216;27.904;2024-01-16T15:04:46;6.33;67.25
67799;SHT30;54596;43.216;27.904;2024-01-16T15:07:11;6.32;67.37
67799;SHT30;54596;43.216;27.904;2024-01-16T15:09:37;6.25;67.80
67799;SHT30;54596;43.216;27.904;2024-01-16T15:12:04;6.23;68.18
67799;SHT30;54596;43.216;27.904;2024-01-16T15:14:31;6.22;68.44
67799;SHT30;54596;43.216;27.904;2024-01-16T15:16:57;6.17;68.78
67799;SHT30;54596;43.216;27.904;2024-01-16T15:19:23;6.10;68.97
67799;SHT30;54596;43.216;27.904;2024-01-16T15:21:48;6.05;68.99
67799;SHT30;54596;43.216;27.904;2024-01-16T15:24:14;6.03;69.10
67799;SHT30;54596;43.216;27.904;2024-01-16T15:26:45;5.98;69.35
67799;SHT30;54596;43.216;27.904;2024-01-16T15:29:10;5.92;69.13
67799;SHT30;54596;43.216;27.904;2024-01-16T15:31:37;5.89;69.10
67799;SHT30;54596;43.216;27.904;2024-01-16T15:34:03;5.88;69.14
67799;SHT30;54596;43.216;27.904;2024-01-16T15:36:28;5.85;69.25
67799;SHT30;54596;43.216;27.904;2024-01-16T15:38:54;5.79;69.21
67799;SHT30;54596;43.216;27.904;2024-01-16T15:41:21;5.74;69.67
67799;SHT30;54596;43.216;27.904;2024-01-16T15:43:46;5.71;69.63